createdAt,value
2018-08-19T00:00:17.353Z,18.50
2018-08-19T00:02:44.530Z,18.60
2018-08-19T00:05:14.935Z,18.70
2018-08-19T00:07:42.298Z,18.60
2018-08-19T00:10:09.522Z,18.50
2018-08-19T00:12:43.450Z,18.50
2018-08-19T00:15:10.658Z,18.50
2018-08-19T00:17:37.878Z,18.50
2018-08-19T00:20:07.354Z,18.60
2018-08-19T00:22:34.516Z,18.60
2018-08-19T00:25:01.703Z,18.60
2018-08-19T00:27:28.884Z,18.50
2018-08-19T00:29:56.106Z,18.40
2018-08-19T00:32:23.287Z,18.40
2018-08-19T00:34:50.428Z,18.40
2018-08-19T00:37:17.652Z,18.50
2018-08-19T00:39:44.784Z,18.30
2018-08-19T00:42:11.902Z,18.30
2018-08-19T00:44:40.398Z,18.30
2018-08-19T00:47:07.668Z,18.10
2018-08-19T00:49:34.811Z,18.00
2018-08-19T00:52:02.518Z,18.00
2018-08-19T00:54:31.455Z,18.00
2018-08-19T00:56:59.637Z,17.90
2018-08-19T00:59:29.079Z,17.80
2018-08-19T01:01:56.439Z,17.90
2018-08-19T01:04:23.786Z,18.00
2018-08-19T01:06:51.738Z,17.90
2018-08-19T01:09:20.423Z,17.70
2018-08-19T01:11:47.603Z,17.80
2018-08-19T01:14:14.870Z,17.70
2018-08-19T01:16:42.142Z,17.70
2018-08-19T01:19:09.873Z,17.70
2018-08-19T01:21:37.021Z,17.60
2018-08-19T01:24:10.399Z,17.60
2018-08-19T01:26:39.030Z,17.70
2018-08-19T01:29:07.285Z,17.60
2018-08-19T01:31:34.561Z,17.60
2018-08-19T01:34:06.189Z,17.60
2018-08-19T01:36:33.357Z,17.60
2018-08-19T01:39:00.566Z,17.70
2018-08-19T01:41:27.728Z,17.70
2018-08-19T01:44:09.542Z,17.60
2018-08-19T01:46:38.980Z,17.50
2018-08-19T01:49:08.241Z,17.40
2018-08-19T01:51:36.211Z,17.40
2018-08-19T01:54:10.105Z,17.40
2018-08-19T01:56:37.761Z,17.30
2018-08-19T01:59:05.341Z,17.40
2018-08-19T02:01:44.163Z,17.40
2018-08-19T02:04:11.314Z,17.30
2018-08-19T02:06:38.872Z,17.40
2018-08-19T02:09:07.662Z,17.30
2018-08-19T02:11:34.780Z,17.50
2018-08-19T02:14:01.906Z,17.50
2018-08-19T02:16:29.137Z,17.30
2018-08-19T02:18:56.414Z,17.30
2018-08-19T02:21:23.612Z,17.20
2018-08-19T02:23:50.744Z,17.20
2018-08-19T02:26:22.465Z,17.20
2018-08-19T02:28:49.581Z,17.10
2018-08-19T02:31:16.686Z,17.20
2018-08-19T02:33:43.811Z,17.10
2018-08-19T02:36:12.279Z,17.00
2018-08-19T02:38:39.411Z,17.00
2018-08-19T02:41:06.585Z,17.20
2018-08-19T02:43:35.206Z,17.20
2018-08-19T02:46:02.334Z,17.20
2018-08-19T02:48:42.419Z,17.10
2018-08-19T02:51:11.490Z,17.10
2018-08-19T02:53:38.830Z,17.20
2018-08-19T02:56:06.006Z,17.30
2018-08-19T02:58:33.123Z,17.40
2018-08-19T03:01:00.296Z,17.30
2018-08-19T03:03:27.506Z,17.20
2018-08-19T03:05:59.213Z,17.00
2018-08-19T03:08:27.094Z,17.10
2018-08-19T03:10:54.349Z,17.20
2018-08-19T03:13:21.527Z,17.20
2018-08-19T03:15:51.165Z,17.20
2018-08-19T03:18:18.281Z,17.30
2018-08-19T03:20:45.379Z,17.30
2018-08-19T03:23:12.482Z,17.30
2018-08-19T03:25:39.587Z,17.20
2018-08-19T03:28:06.710Z,17.30
2018-08-19T03:30:33.811Z,17.20
2018-08-19T03:33:01.044Z,17.20
2018-08-19T03:35:28.188Z,17.10
2018-08-19T03:37:56.676Z,17.00
2018-08-19T03:40:25.523Z,16.90
2018-08-19T03:42:53.046Z,16.80
2018-08-19T03:45:20.945Z,16.80
2018-08-19T03:47:49.227Z,16.80
2018-08-19T03:50:20.522Z,16.70
2018-08-19T03:52:47.850Z,16.70
2018-08-19T03:55:20.925Z,16.70
2018-08-19T03:57:48.523Z,16.60
2018-08-19T04:00:17.153Z,16.50
2018-08-19T04:02:44.390Z,16.40
2018-08-19T04:05:11.559Z,16.30
2018-08-19T04:07:38.662Z,16.20
2018-08-19T04:10:05.805Z,16.30
2018-08-19T04:12:32.893Z,16.30
2018-08-19T04:14:59.997Z,16.40
2018-08-19T04:17:27.147Z,16.40
2018-08-19T04:19:55.674Z,16.40
2018-08-19T04:22:22.858Z,16.50
2018-08-19T04:24:49.985Z,16.60
2018-08-19T04:27:17.117Z,16.60
2018-08-19T04:29:44.212Z,16.60
2018-08-19T04:32:18.172Z,16.70
2018-08-19T04:34:45.337Z,16.70
2018-08-19T04:37:12.451Z,16.80
2018-08-19T04:39:39.582Z,16.90
2018-08-19T04:42:06.743Z,16.90
2018-08-19T04:44:33.850Z,16.90
2018-08-19T04:47:14.153Z,16.90
2018-08-19T04:49:41.517Z,16.80
2018-08-19T04:52:08.692Z,17.00
2018-08-19T04:54:35.777Z,16.90
2018-08-19T04:57:02.930Z,16.90
2018-08-19T04:59:30.045Z,16.90
2018-08-19T05:01:57.244Z,16.90
2018-08-19T05:04:24.365Z,17.00
2018-08-19T05:06:51.482Z,17.10
2018-08-19T05:09:18.584Z,17.30
2018-08-19T05:11:45.714Z,17.50
2018-08-19T05:14:12.809Z,17.80
2018-08-19T05:16:39.930Z,18.60
2018-08-19T05:19:07.071Z,19.80
2018-08-19T05:21:34.208Z,20.60
2018-08-19T05:24:01.358Z,21.00
2018-08-19T05:26:28.523Z,22.70
2018-08-19T05:29:06.156Z,23.80
2018-08-19T05:31:37.568Z,24.90
2018-08-19T05:34:05.067Z,25.60
2018-08-19T05:36:37.189Z,26.70
2018-08-19T05:39:06.026Z,27.20
2018-08-19T05:41:33.136Z,27.80
2018-08-19T05:44:00.266Z,28.30
2018-08-19T05:46:27.431Z,29.10
2018-08-19T05:48:59.248Z,29.50
2018-08-19T05:51:26.438Z,29.70
2018-08-19T05:53:53.954Z,30.50
2018-08-19T05:56:21.075Z,31.00
2018-08-19T05:58:48.793Z,31.40
2018-08-19T06:01:35.782Z,31.90
2018-08-19T06:04:03.121Z,32.40
2018-08-19T06:06:30.305Z,32.70
2018-08-19T06:08:57.526Z,33.70
2018-08-19T06:11:24.760Z,33.40
2018-08-19T06:13:51.924Z,33.00
2018-08-19T06:16:19.076Z,33.90
2018-08-19T06:18:46.228Z,34.40
2018-08-19T06:21:13.333Z,34.30
2018-08-19T06:23:40.433Z,34.20
2018-08-19T06:26:07.558Z,34.50
2018-08-19T06:28:34.699Z,36.10
2018-08-19T06:31:01.933Z,36.10
2018-08-19T06:33:29.382Z,36.50
2018-08-19T06:35:56.531Z,36.30
2018-08-19T06:38:23.734Z,36.60
2018-08-19T06:40:50.865Z,36.90
2018-08-19T06:43:18.056Z,37.80
2018-08-19T06:45:45.122Z,37.90
2018-08-19T06:48:12.248Z,38.60
2018-08-19T06:50:39.397Z,38.70
2018-08-19T06:53:06.793Z,38.40
2018-08-19T06:55:33.913Z,37.10
2018-08-19T06:58:01.109Z,38.90
2018-08-19T07:00:31.225Z,38.70
2018-08-19T07:03:01.428Z,37.40
2018-08-19T07:05:29.062Z,36.80
2018-08-19T07:07:56.382Z,39.10
2018-08-19T07:10:30.446Z,39.80
2018-08-19T07:13:04.581Z,40.40
2018-08-19T07:15:31.899Z,40.70
2018-08-19T07:17:59.026Z,41.10
2018-08-19T07:20:26.299Z,41.80
2018-08-19T07:22:53.522Z,42.40
2018-08-19T07:25:20.730Z,42.80
2018-08-19T07:27:47.877Z,42.90
2018-08-19T07:30:15.012Z,42.30
2018-08-19T07:32:42.157Z,42.20
2018-08-19T07:35:09.277Z,42.70
2018-08-19T07:37:36.383Z,42.40
2018-08-19T07:40:04.269Z,43.20
2018-08-19T07:42:31.408Z,44.10
2018-08-19T07:44:58.555Z,43.70
2018-08-19T07:47:25.690Z,42.90
2018-08-19T07:49:52.882Z,43.80
2018-08-19T07:52:20.025Z,43.40
2018-08-19T07:54:47.146Z,44.10
2018-08-19T07:57:23.798Z,43.40
2018-08-19T07:59:50.942Z,43.60
2018-08-19T08:02:18.114Z,43.80
2018-08-19T08:04:45.245Z,44.10
2018-08-19T08:07:13.406Z,43.90
2018-08-19T08:09:41.091Z,44.00
2018-08-19T08:12:08.854Z,44.30
2018-08-19T08:14:37.302Z,44.10
2018-08-19T08:17:06.478Z,43.60
2018-08-19T08:19:33.716Z,43.20
2018-08-19T08:22:06.494Z,42.70
2018-08-19T08:24:33.606Z,43.10
2018-08-19T08:27:00.729Z,43.30
2018-08-19T08:29:27.917Z,42.90
2018-08-19T08:31:56.856Z,42.40
2018-08-19T08:34:25.397Z,43.00
2018-08-19T08:36:58.293Z,43.40
2018-08-19T08:39:25.580Z,43.20
2018-08-19T08:41:52.806Z,43.60
2018-08-19T08:44:19.913Z,43.90
2018-08-19T08:46:47.019Z,43.80
2018-08-19T08:49:14.165Z,43.40
2018-08-19T08:51:41.333Z,43.20
2018-08-19T08:54:08.456Z,43.10
2018-08-19T08:56:35.562Z,43.10
2018-08-19T08:59:02.741Z,43.20
2018-08-19T09:01:29.890Z,42.80
2018-08-19T09:03:57.155Z,41.60
2018-08-19T09:06:27.270Z,41.90
2018-08-19T09:08:54.505Z,41.90
2018-08-19T09:11:21.678Z,41.60
2018-08-19T09:13:48.790Z,40.90
2018-08-19T09:16:15.902Z,40.70
2018-08-19T09:18:43.034Z,39.90
2018-08-19T09:21:10.169Z,39.10
2018-08-19T09:23:37.295Z,36.40
2018-08-19T09:26:04.440Z,34.80
2018-08-19T09:28:31.606Z,33.90
2018-08-19T09:30:58.859Z,33.20
2018-08-19T09:33:26.018Z,32.40
2018-08-19T09:35:53.218Z,31.70
2018-08-19T09:38:21.302Z,31.20
2018-08-19T09:40:48.661Z,30.70
2018-08-19T09:43:15.928Z,30.20
2018-08-19T09:45:43.514Z,29.90
2018-08-19T09:48:11.273Z,29.50
2018-08-19T09:50:39.466Z,29.20
2018-08-19T09:53:06.637Z,29.00
2018-08-19T09:55:38.581Z,28.80
2018-08-19T09:58:09.967Z,28.60
2018-08-19T10:00:42.834Z,28.40
2018-08-19T10:03:09.998Z,28.20
2018-08-19T10:05:37.146Z,28.10
2018-08-19T10:08:04.320Z,28.10
2018-08-19T10:10:32.723Z,28.00
2018-08-19T10:12:59.915Z,27.90
2018-08-19T10:15:27.148Z,27.80
2018-08-19T10:17:54.431Z,27.70
2018-08-19T10:20:21.567Z,27.70
2018-08-19T10:22:49.148Z,27.70
2018-08-19T10:25:17.370Z,27.70
2018-08-19T10:27:46.482Z,27.50
2018-08-19T10:30:14.150Z,27.60
2018-08-19T10:32:41.348Z,27.60
2018-08-19T10:35:14.555Z,27.60
2018-08-19T10:37:41.718Z,27.60
2018-08-19T10:40:08.892Z,27.60
2018-08-19T10:42:36.042Z,27.70
2018-08-19T10:45:09.192Z,27.70
2018-08-19T10:47:36.318Z,27.70
2018-08-19T10:50:06.726Z,27.70
2018-08-19T10:52:37.350Z,27.70
2018-08-19T10:55:04.790Z,27.70
2018-08-19T10:57:32.010Z,27.70
2018-08-19T10:59:59.402Z,27.70
2018-08-19T11:02:26.669Z,27.60
2018-08-19T11:04:56.542Z,27.60
2018-08-19T11:07:23.774Z,27.60
2018-08-19T11:10:06.910Z,27.60
2018-08-19T11:12:34.061Z,27.70
2018-08-19T11:15:01.237Z,27.70
2018-08-19T11:17:28.428Z,27.70
2018-08-19T11:19:55.884Z,27.70
2018-08-19T11:22:23.055Z,27.80
2018-08-19T11:24:50.222Z,27.80
2018-08-19T11:27:17.458Z,27.70
2018-08-19T11:29:44.639Z,27.70
2018-08-19T11:32:17.830Z,27.70
2018-08-19T11:34:44.987Z,27.60
2018-08-19T11:37:12.160Z,27.60
2018-08-19T11:39:43.873Z,27.60
2018-08-19T11:42:11.060Z,27.60
2018-08-19T11:44:38.210Z,27.60
2018-08-19T11:47:05.338Z,27.70
2018-08-19T11:49:32.477Z,27.70
2018-08-19T11:52:01.805Z,27.80
2018-08-19T11:54:29.892Z,27.80
2018-08-19T11:57:03.666Z,27.80
2018-08-19T11:59:36.994Z,27.80
2018-08-19T12:02:05.558Z,27.90
2018-08-19T12:04:32.653Z,27.90
2018-08-19T12:06:59.799Z,27.90
2018-08-19T12:09:27.038Z,27.90
2018-08-19T12:11:54.210Z,27.90
2018-08-19T12:14:21.332Z,27.90
2018-08-19T12:16:54.146Z,28.00
2018-08-19T12:19:23.477Z,28.00
2018-08-19T12:21:54.684Z,28.00
2018-08-19T12:24:26.426Z,28.00
2018-08-19T12:26:56.250Z,27.90
2018-08-19T12:29:25.094Z,28.00
2018-08-19T12:32:13.215Z,27.90
2018-08-19T12:34:42.934Z,28.00
2018-08-19T12:37:11.222Z,27.90
2018-08-19T12:39:38.466Z,27.90
2018-08-19T12:42:05.686Z,28.00
2018-08-19T12:44:32.879Z,28.00
2018-08-19T12:47:10.803Z,28.00
2018-08-19T12:49:39.113Z,28.00
2018-08-19T12:52:06.777Z,28.00
2018-08-19T12:54:34.006Z,28.10
2018-08-19T12:57:01.194Z,28.10
2018-08-19T12:59:28.519Z,28.10
2018-08-19T13:01:55.687Z,28.00
2018-08-19T13:04:23.026Z,28.10
2018-08-19T13:06:58.156Z,28.10
2018-08-19T13:09:27.582Z,28.20
2018-08-19T13:11:58.841Z,28.10
2018-08-19T13:14:26.133Z,28.00
2018-08-19T13:16:53.290Z,28.00
2018-08-19T13:19:20.408Z,28.00
2018-08-19T13:21:47.523Z,28.10
2018-08-19T13:24:15.678Z,28.00
2018-08-19T13:26:42.786Z,28.10
2018-08-19T13:29:09.899Z,28.20
2018-08-19T13:31:37.042Z,28.20
2018-08-19T13:34:04.182Z,28.20
2018-08-19T13:36:31.822Z,28.20
2018-08-19T13:38:59.030Z,28.20
2018-08-19T13:41:26.266Z,28.20
2018-08-19T13:43:53.458Z,28.20
2018-08-19T13:46:20.584Z,28.20
2018-08-19T13:48:47.705Z,28.30
2018-08-19T13:51:14.827Z,28.30
2018-08-19T13:53:41.947Z,28.40
2018-08-19T13:56:09.086Z,28.40
2018-08-19T13:58:36.202Z,28.30
2018-08-19T14:01:03.684Z,28.30
2018-08-19T14:03:31.094Z,28.30
2018-08-19T14:05:58.346Z,28.30
2018-08-19T14:08:25.500Z,28.30
2018-08-19T14:10:52.807Z,28.40
2018-08-19T14:13:19.946Z,28.40
2018-08-19T14:15:47.201Z,28.50
2018-08-19T14:18:14.316Z,28.50
2018-08-19T14:20:41.481Z,28.40
2018-08-19T14:23:08.601Z,28.50
2018-08-19T14:25:35.709Z,28.50
2018-08-19T14:28:02.869Z,28.50
2018-08-19T14:30:30.146Z,28.50
2018-08-19T14:32:57.251Z,28.50
2018-08-19T14:35:24.456Z,28.50
2018-08-19T14:37:51.586Z,28.40
2018-08-19T14:40:18.925Z,28.40
2018-08-19T14:42:46.222Z,28.40
2018-08-19T14:45:13.490Z,28.40
2018-08-19T14:47:40.624Z,28.50
2018-08-19T14:50:12.416Z,28.50
2018-08-19T14:52:39.579Z,28.50
2018-08-19T14:55:07.265Z,28.50
2018-08-19T14:57:34.549Z,28.50
2018-08-19T15:00:01.754Z,28.50
2018-08-19T15:02:28.921Z,28.50
2018-08-19T15:04:56.105Z,28.50
2018-08-19T15:07:23.326Z,28.50
2018-08-19T15:09:51.840Z,28.60
2018-08-19T15:12:22.330Z,28.60
2018-08-19T15:14:49.901Z,28.60
2018-08-19T15:17:17.014Z,28.60
2018-08-19T15:19:46.314Z,28.60
2018-08-19T15:22:13.534Z,28.60
2018-08-19T15:24:40.698Z,28.50
2018-08-19T15:27:07.813Z,28.50
2018-08-19T15:29:38.418Z,28.60
2018-08-19T15:32:05.715Z,28.60
2018-08-19T15:34:32.699Z,28.60
2018-08-19T15:36:59.887Z,28.60
2018-08-19T15:39:27.075Z,28.60
2018-08-19T15:41:54.218Z,28.50
2018-08-19T15:44:21.336Z,28.50
2018-08-19T15:46:48.477Z,28.50
2018-08-19T15:49:18.654Z,28.60
2018-08-19T15:51:45.790Z,28.50
2018-08-19T15:54:12.951Z,28.50
2018-08-19T15:56:40.081Z,28.50
2018-08-19T15:59:08.513Z,28.50
2018-08-19T16:01:35.934Z,28.40
2018-08-19T16:04:09.446Z,28.40
2018-08-19T16:06:36.664Z,28.40
2018-08-19T16:09:07.030Z,28.40
2018-08-19T16:11:34.230Z,28.40
2018-08-19T16:14:04.658Z,28.40
2018-08-19T16:16:31.833Z,28.40
2018-08-19T16:18:59.126Z,28.30
2018-08-19T16:21:26.299Z,28.40
2018-08-19T16:23:53.458Z,28.40
2018-08-19T16:26:20.589Z,28.30
2018-08-19T16:28:47.758Z,28.30
2018-08-19T16:31:14.884Z,28.20
2018-08-19T16:33:42.040Z,28.30
2018-08-19T16:36:09.171Z,28.20
2018-08-19T16:38:36.298Z,28.20
2018-08-19T16:41:03.415Z,28.10
2018-08-19T16:43:30.615Z,28.10
2018-08-19T16:45:57.851Z,28.00
2018-08-19T16:48:25.137Z,28.00
2018-08-19T16:50:52.308Z,28.00
2018-08-19T16:53:19.386Z,27.90
2018-08-19T16:55:46.526Z,27.90
2018-08-19T16:58:13.684Z,27.80
2018-08-19T17:00:40.810Z,27.80
2018-08-19T17:03:25.518Z,27.70
2018-08-19T17:05:53.558Z,27.60
2018-08-19T17:08:20.733Z,27.50
2018-08-19T17:10:47.880Z,27.50
2018-08-19T17:13:14.958Z,27.50
2018-08-19T17:15:42.081Z,27.50
2018-08-19T17:18:09.198Z,27.40
2018-08-19T17:20:36.321Z,27.40
2018-08-19T17:23:03.521Z,27.40
2018-08-19T17:25:30.761Z,27.30
2018-08-19T17:28:04.502Z,27.20
2018-08-19T17:30:32.018Z,27.10
2018-08-19T17:33:03.886Z,27.20
2018-08-19T17:35:31.010Z,27.10
2018-08-19T17:37:58.198Z,26.90
2018-08-19T17:40:25.449Z,26.80
2018-08-19T17:42:52.617Z,26.70
2018-08-19T17:45:19.735Z,26.70
2018-08-19T17:47:46.874Z,26.60
2018-08-19T17:50:18.619Z,26.50
2018-08-19T17:52:45.818Z,26.50
2018-08-19T17:55:12.970Z,26.40
2018-08-19T17:57:40.099Z,26.30
2018-08-19T18:00:07.309Z,26.10
2018-08-19T18:02:34.402Z,26.20
2018-08-19T18:05:01.517Z,26.10
2018-08-19T18:07:28.657Z,26.00
2018-08-19T18:09:57.922Z,25.90
2018-08-19T18:12:25.167Z,25.80
2018-08-19T18:14:52.390Z,25.70
2018-08-19T18:17:19.515Z,25.70
2018-08-19T18:19:46.665Z,25.60
2018-08-19T18:22:14.143Z,25.50
2018-08-19T18:24:44.113Z,25.40
2018-08-19T18:27:11.262Z,25.30
2018-08-19T18:29:40.469Z,25.20
2018-08-19T18:32:07.589Z,25.20
2018-08-19T18:34:37.161Z,25.10
2018-08-19T18:37:04.421Z,25.10
2018-08-19T18:39:31.566Z,24.90
2018-08-19T18:41:58.744Z,24.90
2018-08-19T18:44:25.926Z,24.80
2018-08-19T18:46:53.098Z,24.70
2018-08-19T18:49:21.683Z,24.60
2018-08-19T18:51:50.202Z,24.50
2018-08-19T18:54:31.992Z,24.40
2018-08-19T18:57:00.467Z,24.40
2018-08-19T18:59:27.654Z,24.20
2018-08-19T19:01:56.121Z,24.20
2018-08-19T19:04:23.313Z,24.10
2018-08-19T19:06:50.551Z,24.00
2018-08-19T19:09:17.658Z,24.00
2018-08-19T19:11:47.658Z,23.90
2018-08-19T19:14:18.284Z,23.90
2018-08-19T19:16:48.497Z,23.80
2018-08-19T19:19:15.643Z,23.70
2018-08-19T19:21:45.530Z,23.60
2018-08-19T19:24:12.676Z,23.50
2018-08-19T19:26:41.226Z,23.60
2018-08-19T19:29:14.049Z,23.70
2018-08-19T19:31:41.203Z,23.60
2018-08-19T19:34:13.748Z,23.50
2018-08-19T19:36:40.925Z,23.50
2018-08-19T19:39:08.102Z,23.40
2018-08-19T19:41:35.399Z,23.40
2018-08-19T19:44:20.008Z,23.30
2018-08-19T19:46:47.304Z,23.10
2018-08-19T19:49:14.465Z,23.10
2018-08-19T19:51:45.191Z,23.00
2018-08-19T19:54:12.324Z,22.80
2018-08-19T19:56:39.445Z,22.80
2018-08-19T19:59:06.574Z,22.80
2018-08-19T20:01:34.120Z,22.80
2018-08-19T20:04:01.988Z,22.80
2018-08-19T20:06:29.248Z,22.80
2018-08-19T20:08:57.884Z,22.70
2018-08-19T20:11:26.406Z,22.60
2018-08-19T20:13:57.085Z,22.40
2018-08-19T20:16:24.955Z,22.40
2018-08-19T20:18:52.122Z,22.40
2018-08-19T20:21:22.996Z,22.40
2018-08-19T20:23:51.136Z,22.40
2018-08-19T20:26:18.411Z,22.50
2018-08-19T20:28:48.013Z,22.40
2018-08-19T20:31:15.185Z,22.40
2018-08-19T20:33:42.319Z,22.40
2018-08-19T20:36:09.451Z,22.50
2018-08-19T20:38:36.617Z,22.50
2018-08-19T20:41:03.934Z,22.40
2018-08-19T20:43:31.215Z,22.30
2018-08-19T20:45:58.412Z,22.20
2018-08-19T20:48:25.682Z,22.30
2018-08-19T20:50:52.818Z,22.30
2018-08-19T20:53:19.964Z,22.30
2018-08-19T20:55:47.350Z,22.30
2018-08-19T20:58:14.493Z,22.50
2018-08-19T21:00:41.634Z,22.30
2018-08-19T21:03:09.344Z,22.20
2018-08-19T21:05:36.918Z,22.30
2018-08-19T21:08:08.887Z,22.20
2018-08-19T21:10:37.091Z,22.20
2018-08-19T21:13:04.394Z,22.20
2018-08-19T21:15:35.521Z,22.10
2018-08-19T21:18:02.731Z,22.00
2018-08-19T21:20:30.044Z,21.90
2018-08-19T21:22:57.404Z,21.90
2018-08-19T21:25:25.277Z,21.80
2018-08-19T21:27:52.494Z,21.90
2018-08-19T21:30:19.806Z,22.10
2018-08-19T21:32:46.929Z,22.20
2018-08-19T21:35:14.106Z,22.30
2018-08-19T21:37:41.292Z,22.20
2018-08-19T21:40:08.476Z,22.20
2018-08-19T21:42:52.484Z,22.20
2018-08-19T21:45:20.057Z,22.20
2018-08-19T21:47:47.336Z,22.20
2018-08-19T21:50:14.497Z,22.10
2018-08-19T21:52:58.781Z,21.90
2018-08-19T21:55:29.050Z,22.10
2018-08-19T21:57:56.171Z,22.00
2018-08-19T22:00:24.924Z,22.00
2018-08-19T22:02:57.955Z,21.90
2018-08-19T22:05:25.117Z,21.80
2018-08-19T22:07:52.287Z,21.90
2018-08-19T22:10:19.480Z,21.80
2018-08-19T22:12:48.387Z,21.90
2018-08-19T22:15:17.420Z,22.00
2018-08-19T22:17:44.547Z,21.90
2018-08-19T22:20:11.740Z,22.00
2018-08-19T22:22:38.861Z,22.00
2018-08-19T22:25:06.050Z,22.10
2018-08-19T22:27:33.498Z,22.00
2018-08-19T22:30:00.635Z,22.10
2018-08-19T22:32:27.805Z,22.00
2018-08-19T22:34:54.993Z,21.80
2018-08-19T22:37:22.168Z,21.80
2018-08-19T22:39:49.491Z,21.80
2018-08-19T22:42:16.753Z,21.70
2018-08-19T22:44:43.909Z,21.60
2018-08-19T22:47:11.042Z,21.50
2018-08-19T22:49:38.145Z,21.50
2018-08-19T22:52:17.430Z,21.30
2018-08-19T22:54:44.949Z,21.30
2018-08-19T22:57:12.046Z,21.10
2018-08-19T22:59:39.166Z,21.10
2018-08-19T23:02:06.305Z,21.20
2018-08-19T23:04:33.462Z,21.10
2018-08-19T23:07:00.589Z,21.10
2018-08-19T23:09:27.721Z,21.00
2018-08-19T23:11:54.848Z,21.10
2018-08-19T23:14:33.680Z,21.10
2018-08-19T23:17:00.893Z,21.00
2018-08-19T23:19:27.996Z,21.00
2018-08-19T23:21:55.125Z,20.90
2018-08-19T23:24:22.345Z,20.90
2018-08-19T23:26:49.498Z,20.90
2018-08-19T23:29:16.698Z,21.00
2018-08-19T23:31:43.846Z,20.90
2018-08-19T23:34:11.018Z,20.90
2018-08-19T23:36:38.261Z,20.90
2018-08-19T23:39:06.628Z,20.80
2018-08-19T23:41:33.885Z,20.80
2018-08-19T23:44:01.030Z,20.70
2018-08-19T23:46:28.175Z,20.80
2018-08-19T23:48:55.350Z,20.70
2018-08-19T23:51:29.142Z,20.70
2018-08-19T23:53:56.813Z,20.70
2018-08-19T23:56:24.058Z,20.70
2018-08-19T23:58:52.212Z,20.70
